sensor_id;sensor_type;location;lat;lon;timestamp;P1;durP1;ratioP1;P2;durP2;ratioP2
23388;SDS011;11867;51.198;11.966;2023-07-20T00:00:54;7.95;;;4.00;;
23388;SDS011;11867;51.198;11.966;2023-07-20T00:02:17;6.28;;;3.35;;
23388;SDS011;11867;51.198;11.966;2023-07-20T00:03:39;6.70;;;3.30;;
23388;SDS011;11867;51.198;11.966;2023-07-20T00:05:02;7.88;;;3.53;;
23388;SDS011;11867;51.198;11.966;2023-07-20T00:06:24;5.45;;;3.20;;
23388;SDS011;11867;51.198;11.966;2023-07-20T00:07:49;7.15;;;3.72;;
23388;SDS011;11867;51.198;11.966;2023-07-20T00:09:15;6.93;;;3.30;;
23388;SDS011;11867;51.198;11.966;2023-07-20T00:10:39;8.48;;;3.67;;
23388;SDS011;11867;51.198;11.966;2023-07-20T00:12:02;5.78;;;3.40;;
23388;SDS011;11867;51.198;11.966;2023-07-20T00:13:25;10.35;;;3.70;;
23388;SDS011;11867;51.198;11.966;2023-07-20T00:14:47;6.35;;;3.50;;
23388;SDS011;11867;51.198;11.966;2023-07-20T00:16:10;6.60;;;3.65;;
23388;SDS011;11867;51.198;11.966;2023-07-20T00:17:32;9.00;;;3.88;;
23388;SDS011;11867;51.198;11.966;2023-07-20T00:18:55;8.50;;;4.05;;
23388;SDS011;11867;51.198;11.966;2023-07-20T00:20:17;9.75;;;3.30;;
23388;SDS011;11867;51.198;11.966;2023-07-20T00:21:40;4.50;;;3.55;;
23388;SDS011;11867;51.198;11.966;2023-07-20T00:23:04;8.73;;;3.47;;
23388;SDS011;11867;51.198;11.966;2023-07-20T00:24:28;5.05;;;3.53;;
23388;SDS011;11867;51.198;11.966;2023-07-20T00:25:50;9.63;;;4.18;;
23388;SDS011;11867;51.198;11.966;2023-07-20T00:27:13;10.73;;;4.78;;
23388;SDS011;11867;51.198;11.966;2023-07-20T00:28:35;4.35;;;3.60;;
23388;SDS011;11867;51.198;11.966;2023-07-20T00:29:58;8.32;;;4.05;;
23388;SDS011;11867;51.198;11.966;2023-07-20T00:31:20;6.20;;;3.42;;
23388;SDS011;11867;51.198;11.966;2023-07-20T00:32:43;4.82;;;3.22;;
23388;SDS011;11867;51.198;11.966;2023-07-20T00:34:05;5.82;;;3.25;;
23388;SDS011;11867;51.198;11.966;2023-07-20T00:35:28;6.20;;;3.40;;
23388;SDS011;11867;51.198;11.966;2023-07-20T00:36:50;5.57;;;3.17;;
23388;SDS011;11867;51.198;11.966;2023-07-20T00:38:13;8.35;;;3.40;;
23388;SDS011;11867;51.198;11.966;2023-07-20T00:39:36;6.05;;;3.95;;
23388;SDS011;11867;51.198;11.966;2023-07-20T00:41:00;4.30;;;3.63;;
23388;SDS011;11867;51.198;11.966;2023-07-20T00:42:22;6.03;;;3.08;;
23388;SDS011;11867;51.198;11.966;2023-07-20T00:43:45;9.65;;;3.47;;
23388;SDS011;11867;51.198;11.966;2023-07-20T00:45:07;4.40;;;3.22;;
23388;SDS011;11867;51.198;11.966;2023-07-20T00:46:30;6.35;;;3.67;;
23388;SDS011;11867;51.198;11.966;2023-07-20T00:47:53;6.47;;;4.00;;
23388;SDS011;11867;51.198;11.966;2023-07-20T00:49:16;7.40;;;3.58;;
23388;SDS011;11867;51.198;11.966;2023-07-20T00:50:42;6.03;;;3.92;;
23388;SDS011;11867;51.198;11.966;2023-07-20T00:52:06;7.00;;;3.70;;
23388;SDS011;11867;51.198;11.966;2023-07-20T00:53:30;6.25;;;3.60;;
23388;SDS011;11867;51.198;11.966;2023-07-20T00:54:53;9.07;;;3.75;;
23388;SDS011;11867;51.198;11.966;2023-07-20T00:56:18;6.43;;;3.95;;
23388;SDS011;11867;51.198;11.966;2023-07-20T00:57:41;5.18;;;3.42;;
23388;SDS011;11867;51.198;11.966;2023-07-20T00:59:04;4.20;;;3.78;;
23388;SDS011;11867;51.198;11.966;2023-07-20T01:00:26;4.82;;;3.88;;
23388;SDS011;11867;51.198;11.966;2023-07-20T01:01:49;9.45;;;3.95;;
23388;SDS011;11867;51.198;11.966;2023-07-20T01:03:11;5.72;;;4.18;;
23388;SDS011;11867;51.198;11.966;2023-07-20T01:04:34;7.05;;;3.65;;
23388;SDS011;11867;51.198;11.966;2023-07-20T01:05:59;6.18;;;4.18;;
23388;SDS011;11867;51.198;11.966;2023-07-20T01:07:32;6.20;;;3.72;;
23388;SDS011;11867;51.198;11.966;2023-07-20T01:09:02;5.38;;;3.40;;
23388;SDS011;11867;51.198;11.966;2023-07-20T01:10:36;8.18;;;4.07;;
23388;SDS011;11867;51.198;11.966;2023-07-20T01:12:02;5.93;;;4.15;;
23388;SDS011;11867;51.198;11.966;2023-07-20T01:13:29;4.57;;;4.15;;
23388;SDS011;11867;51.198;11.966;2023-07-20T01:14:52;6.25;;;4.07;;
23388;SDS011;11867;51.198;11.966;2023-07-20T01:16:15;8.73;;;3.97;;
23388;SDS011;11867;51.198;11.966;2023-07-20T01:17:37;8.43;;;4.40;;
23388;SDS011;11867;51.198;11.966;2023-07-20T01:19:01;7.68;;;5.00;;
23388;SDS011;11867;51.198;11.966;2023-07-20T01:20:23;4.35;;;3.95;;
23388;SDS011;11867;51.198;11.966;2023-07-20T01:21:48;4.43;;;4.03;;
23388;SDS011;11867;51.198;11.966;2023-07-20T01:23:22;7.90;;;5.03;;
23388;SDS011;11867;51.198;11.966;2023-07-20T01:24:57;5.68;;;4.25;;
23388;SDS011;11867;51.198;11.966;2023-07-20T01:26:41;6.50;;;4.47;;
23388;SDS011;11867;51.198;11.966;2023-07-20T01:28:37;5.40;;;4.60;;
23388;SDS011;11867;51.198;11.966;2023-07-20T01:30:33;5.47;;;4.43;;
23388;SDS011;11867;51.198;11.966;2023-07-20T01:32:09;5.90;;;4.80;;
23388;SDS011;11867;51.198;11.966;2023-07-20T01:33:32;7.53;;;4.82;;
23388;SDS011;11867;51.198;11.966;2023-07-20T01:34:56;6.63;;;4.90;;
23388;SDS011;11867;51.198;11.966;2023-07-20T01:36:21;8.95;;;5.00;;
23388;SDS011;11867;51.198;11.966;2023-07-20T01:37:46;8.55;;;5.30;;
23388;SDS011;11867;51.198;11.966;2023-07-20T01:39:09;9.23;;;4.72;;
23388;SDS011;11867;51.198;11.966;2023-07-20T01:40:33;7.60;;;5.15;;
23388;SDS011;11867;51.198;11.966;2023-07-20T01:41:56;7.50;;;5.03;;
23388;SDS011;11867;51.198;11.966;2023-07-20T01:43:20;7.72;;;5.18;;
23388;SDS011;11867;51.198;11.966;2023-07-20T01:44:42;5.80;;;5.20;;
23388;SDS011;11867;51.198;11.966;2023-07-20T01:46:05;7.50;;;6.07;;
23388;SDS011;11867;51.198;11.966;2023-07-20T01:47:28;6.07;;;5.35;;
23388;SDS011;11867;51.198;11.966;2023-07-20T01:48:51;6.97;;;5.10;;
23388;SDS011;11867;51.198;11.966;2023-07-20T01:50:13;5.75;;;5.28;;
23388;SDS011;11867;51.198;11.966;2023-07-20T01:51:36;6.68;;;5.68;;
23388;SDS011;11867;51.198;11.966;2023-07-20T01:52:58;7.25;;;5.25;;
23388;SDS011;11867;51.198;11.966;2023-07-20T01:54:21;8.38;;;5.47;;
23388;SDS011;11867;51.198;11.966;2023-07-20T01:55:43;6.13;;;5.35;;
23388;SDS011;11867;51.198;11.966;2023-07-20T01:57:06;5.93;;;5.03;;
23388;SDS011;11867;51.198;11.966;2023-07-20T01:58:28;7.03;;;5.57;;
23388;SDS011;11867;51.198;11.966;2023-07-20T01:59:51;5.82;;;5.30;;
23388;SDS011;11867;51.198;11.966;2023-07-20T02:01:13;7.50;;;5.95;;
23388;SDS011;11867;51.198;11.966;2023-07-20T02:02:38;7.60;;;6.32;;
23388;SDS011;11867;51.198;11.966;2023-07-20T02:04:00;8.63;;;5.30;;
23388;SDS011;11867;51.198;11.966;2023-07-20T02:05:23;6.70;;;6.00;;
23388;SDS011;11867;51.198;11.966;2023-07-20T02:06:45;8.50;;;6.22;;
23388;SDS011;11867;51.198;11.966;2023-07-20T02:08:08;8.95;;;6.20;;
23388;SDS011;11867;51.198;11.966;2023-07-20T02:09:31;6.13;;;5.50;;
23388;SDS011;11867;51.198;11.966;2023-07-20T02:10:54;8.35;;;6.93;;
23388;SDS011;11867;51.198;11.966;2023-07-20T02:12:16;9.93;;;6.03;;
23388;SDS011;11867;51.198;11.966;2023-07-20T02:13:39;7.13;;;5.70;;
23388;SDS011;11867;51.198;11.966;2023-07-20T02:15:01;7.28;;;6.15;;
23388;SDS011;11867;51.198;11.966;2023-07-20T02:16:24;7.18;;;6.38;;
23388;SDS011;11867;51.198;11.966;2023-07-20T02:17:48;7.03;;;6.35;;
23388;SDS011;11867;51.198;11.966;2023-07-20T02:19:11;7.50;;;6.60;;
23388;SDS011;11867;51.198;11.966;2023-07-20T02:20:35;7.80;;;6.00;;
23388;SDS011;11867;51.198;11.966;2023-07-20T02:21:58;9.20;;;6.32;;
23388;SDS011;11867;51.198;11.966;2023-07-20T02:23:20;6.93;;;6.22;;
23388;SDS011;11867;51.198;11.966;2023-07-20T02:24:43;8.88;;;6.25;;
23388;SDS011;11867;51.198;11.966;2023-07-20T02:26:05;6.65;;;5.20;;
23388;SDS011;11867;51.198;11.966;2023-07-20T02:27:28;6.00;;;5.40;;
23388;SDS011;11867;51.198;11.966;2023-07-20T02:28:51;11.63;;;5.97;;
23388;SDS011;11867;51.198;11.966;2023-07-20T02:30:14;9.27;;;6.10;;
23388;SDS011;11867;51.198;11.966;2023-07-20T02:31:37;7.25;;;5.97;;
23388;SDS011;11867;51.198;11.966;2023-07-20T02:33:02;7.47;;;5.88;;
23388;SDS011;11867;51.198;11.966;2023-07-20T02:34:26;7.93;;;6.57;;
23388;SDS011;11867;51.198;11.966;2023-07-20T02:35:49;8.75;;;5.97;;
23388;SDS011;11867;51.198;11.966;2023-07-20T02:37:11;6.57;;;5.97;;
23388;SDS011;11867;51.198;11.966;2023-07-20T02:38:34;7.28;;;5.55;;
23388;SDS011;11867;51.198;11.966;2023-07-20T02:39:56;9.15;;;5.55;;
23388;SDS011;11867;51.198;11.966;2023-07-20T02:41:19;9.55;;;6.05;;
23388;SDS011;11867;51.198;11.966;2023-07-20T02:42:41;10.23;;;6.07;;
23388;SDS011;11867;51.198;11.966;2023-07-20T02:44:05;7.07;;;6.40;;
23388;SDS011;11867;51.198;11.966;2023-07-20T02:45:27;7.28;;;6.22;;
23388;SDS011;11867;51.198;11.966;2023-07-20T02:46:49;6.35;;;5.75;;
23388;SDS011;11867;51.198;11.966;2023-07-20T02:48:13;14.85;;;6.57;;
23388;SDS011;11867;51.198;11.966;2023-07-20T02:49:36;7.72;;;6.53;;
23388;SDS011;11867;51.198;11.966;2023-07-20T02:50:58;6.93;;;6.22;;
23388;SDS011;11867;51.198;11.966;2023-07-20T02:52:21;8.20;;;5.93;;
23388;SDS011;11867;51.198;11.966;2023-07-20T02:53:43;6.93;;;6.03;;
23388;SDS011;11867;51.198;11.966;2023-07-20T02:55:07;6.88;;;6.20;;
23388;SDS011;11867;51.198;11.966;2023-07-20T02:56:29;11.35;;;6.05;;
23388;SDS011;11867;51.198;11.966;2023-07-20T02:57:52;7.32;;;6.00;;
23388;SDS011;11867;51.198;11.966;2023-07-20T02:59:14;6.78;;;5.85;;
23388;SDS011;11867;51.198;11.966;2023-07-20T03:00:37;7.80;;;5.85;;
23388;SDS011;11867;51.198;11.966;2023-07-20T03:01:59;7.40;;;5.70;;
23388;SDS011;11867;51.198;11.966;2023-07-20T03:03:23;6.55;;;5.80;;
23388;SDS011;11867;51.198;11.966;2023-07-20T03:04:46;10.05;;;6.07;;
23388;SDS011;11867;51.198;11.966;2023-07-20T03:06:08;7.15;;;5.28;;
23388;SDS011;11867;51.198;11.966;2023-07-20T03:07:31;8.55;;;5.75;;
23388;SDS011;11867;51.198;11.966;2023-07-20T03:08:54;7.80;;;5.90;;
23388;SDS011;11867;51.198;11.966;2023-07-20T03:10:16;7.95;;;5.80;;
23388;SDS011;11867;51.198;11.966;2023-07-20T03:11:39;6.18;;;5.53;;
23388;SDS011;11867;51.198;11.966;2023-07-20T03:13:01;8.55;;;6.05;;
23388;SDS011;11867;51.198;11.966;2023-07-20T03:14:24;8.55;;;6.20;;
23388;SDS011;11867;51.198;11.966;2023-07-20T03:15:46;7.75;;;6.05;;
23388;SDS011;11867;51.198;11.966;2023-07-20T03:17:09;6.68;;;5.90;;
23388;SDS011;11867;51.198;11.966;2023-07-20T03:18:32;11.38;;;5.95;;
23388;SDS011;11867;51.198;11.966;2023-07-20T03:19:55;10.02;;;5.82;;
23388;SDS011;11867;51.198;11.966;2023-07-20T03:21:17;8.75;;;5.68;;
23388;SDS011;11867;51.198;11.966;2023-07-20T03:22:40;11.20;;;5.78;;
23388;SDS011;11867;51.198;11.966;2023-07-20T03:24:03;9.77;;;5.70;;
23388;SDS011;11867;51.198;11.966;2023-07-20T03:25:26;8.50;;;5.88;;
23388;SDS011;11867;51.198;11.966;2023-07-20T03:26:49;7.32;;;5.80;;
23388;SDS011;11867;51.198;11.966;2023-07-20T03:28:12;8.35;;;6.45;;
23388;SDS011;11867;51.198;11.966;2023-07-20T03:29:34;7.15;;;5.68;;
23388;SDS011;11867;51.198;11.966;2023-07-20T03:30:57;6.82;;;5.70;;
23388;SDS011;11867;51.198;11.966;2023-07-20T03:32:20;8.00;;;5.55;;
23388;SDS011;11867;51.198;11.966;2023-07-20T03:33:44;7.00;;;5.25;;
23388;SDS011;11867;51.198;11.966;2023-07-20T03:35:07;7.68;;;5.85;;
23388;SDS011;11867;51.198;11.966;2023-07-20T03:36:30;6.10;;;5.40;;
23388;SDS011;11867;51.198;11.966;2023-07-20T03:37:54;11.80;;;5.85;;
23388;SDS011;11867;51.198;11.966;2023-07-20T03:39:16;8.88;;;6.97;;
23388;SDS011;11867;51.198;11.966;2023-07-20T03:40:39;10.32;;;7.18;;
23388;SDS011;11867;51.198;11.966;2023-07-20T03:42:01;8.05;;;6.40;;
23388;SDS011;11867;51.198;11.966;2023-07-20T03:43:24;9.38;;;6.35;;
23388;SDS011;11867;51.198;11.966;2023-07-20T03:44:47;8.63;;;6.47;;
23388;SDS011;11867;51.198;11.966;2023-07-20T03:46:10;12.60;;;7.57;;
23388;SDS011;11867;51.198;11.966;2023-07-20T03:47:32;6.70;;;6.10;;
23388;SDS011;11867;51.198;11.966;2023-07-20T03:48:56;8.77;;;7.07;;
23388;SDS011;11867;51.198;11.966;2023-07-20T03:50:18;11.40;;;7.45;;
23388;SDS011;11867;51.198;11.966;2023-07-20T03:51:41;8.02;;;6.70;;
23388;SDS011;11867;51.198;11.966;2023-07-20T03:53:03;8.02;;;6.07;;
23388;SDS011;11867;51.198;11.966;2023-07-20T03:54:28;7.28;;;4.80;;
23388;SDS011;11867;51.198;11.966;2023-07-20T03:55:51;8.60;;;5.55;;
23388;SDS011;11867;51.198;11.966;2023-07-20T03:57:14;6.72;;;4.13;;
23388;SDS011;11867;51.198;11.966;2023-07-20T03:58:37;6.45;;;3.63;;
23388;SDS011;11867;51.198;11.966;2023-07-20T03:59:59;7.00;;;4.90;;
23388;SDS011;11867;51.198;11.966;2023-07-20T04:01:22;6.47;;;4.28;;
23388;SDS011;11867;51.198;11.966;2023-07-20T04:02:44;8.57;;;4.10;;
23388;SDS011;11867;51.198;11.966;2023-07-20T04:04:09;7.10;;;4.00;;
23388;SDS011;11867;51.198;11.966;2023-07-20T04:05:31;4.78;;;2.95;;
23388;SDS011;11867;51.198;11.966;2023-07-20T04:06:54;3.83;;;2.70;;
23388;SDS011;11867;51.198;11.966;2023-07-20T04:08:17;5.93;;;3.10;;
23388;SDS011;11867;51.198;11.966;2023-07-20T04:09:39;4.90;;;2.90;;
23388;SDS011;11867;51.198;11.966;2023-07-20T04:11:02;5.85;;;2.78;;
23388;SDS011;11867;51.198;11.966;2023-07-20T04:12:24;4.88;;;2.80;;
23388;SDS011;11867;51.198;11.966;2023-07-20T04:13:47;2.40;;;2.20;;
23388;SDS011;11867;51.198;11.966;2023-07-20T04:15:09;3.28;;;2.90;;
23388;SDS011;11867;51.198;11.966;2023-07-20T04:16:32;4.78;;;2.72;;
23388;SDS011;11867;51.198;11.966;2023-07-20T04:17:55;3.63;;;2.60;;
23388;SDS011;11867;51.198;11.966;2023-07-20T04:19:19;4.28;;;2.30;;
23388;SDS011;11867;51.198;11.966;2023-07-20T04:20:41;3.47;;;2.53;;
23388;SDS011;11867;51.198;11.966;2023-07-20T04:22:04;3.35;;;2.33;;
23388;SDS011;11867;51.198;11.966;2023-07-20T04:23:26;3.67;;;2.20;;
23388;SDS011;11867;51.198;11.966;2023-07-20T04:24:49;3.95;;;2.40;;
23388;SDS011;11867;51.198;11.966;2023-07-20T04:26:12;2.88;;;2.10;;
23388;SDS011;11867;51.198;11.966;2023-07-20T04:27:36;3.38;;;2.60;;
23388;SDS011;11867;51.198;11.966;2023-07-20T04:28:59;5.50;;;2.90;;
23388;SDS011;11867;51.198;11.966;2023-07-20T04:30:22;5.93;;;2.85;;
23388;SDS011;11867;51.198;11.966;2023-07-20T04:31:44;4.80;;;2.45;;
23388;SDS011;11867;51.198;11.966;2023-07-20T04:33:07;3.95;;;2.70;;
23388;SDS011;11867;51.198;11.966;2023-07-20T04:34:31;3.80;;;2.70;;
23388;SDS011;11867;51.198;11.966;2023-07-20T04:35:59;4.95;;;2.58;;
23388;SDS011;11867;51.198;11.966;2023-07-20T04:37:21;3.67;;;2.30;;
23388;SDS011;11867;51.198;11.966;2023-07-20T04:38:44;3.05;;;2.65;;
23388;SDS011;11867;51.198;11.966;2023-07-20T04:40:07;5.13;;;2.80;;
23388;SDS011;11867;51.198;11.966;2023-07-20T04:41:31;4.00;;;2.97;;
23388;SDS011;11867;51.198;11.966;2023-07-20T04:42:55;4.05;;;3.08;;
23388;SDS011;11867;51.198;11.966;2023-07-20T04:44:18;5.70;;;3.53;;
23388;SDS011;11867;51.198;11.966;2023-07-20T04:45:40;4.88;;;3.00;;
23388;SDS011;11867;51.198;11.966;2023-07-20T04:47:03;6.22;;;3.28;;
23388;SDS011;11867;51.198;11.966;2023-07-20T04:48:25;5.53;;;3.33;;
23388;SDS011;11867;51.198;11.966;2023-07-20T04:49:50;5.82;;;3.10;;
23388;SDS011;11867;51.198;11.966;2023-07-20T04:51:12;5.72;;;3.83;;
23388;SDS011;11867;51.198;11.966;2023-07-20T04:52:34;6.93;;;3.60;;
23388;SDS011;11867;51.198;11.966;2023-07-20T04:54:03;5.95;;;3.72;;
23388;SDS011;11867;51.198;11.966;2023-07-20T04:55:26;7.95;;;4.45;;
23388;SDS011;11867;51.198;11.966;2023-07-20T04:56:48;6.20;;;4.45;;
23388;SDS011;11867;51.198;11.966;2023-07-20T04:58:12;6.03;;;3.88;;
23388;SDS011;11867;51.198;11.966;2023-07-20T04:59:34;5.03;;;4.13;;
23388;SDS011;11867;51.198;11.966;2023-07-20T05:00:57;4.85;;;4.18;;
23388;SDS011;11867;51.198;11.966;2023-07-20T05:02:19;5.53;;;4.15;;
23388;SDS011;11867;51.198;11.966;2023-07-20T05:03:42;5.47;;;4.18;;
23388;SDS011;11867;51.198;11.966;2023-07-20T05:05:06;4.32;;;3.45;;
23388;SDS011;11867;51.198;11.966;2023-07-20T05:06:30;4.03;;;3.45;;
23388;SDS011;11867;51.198;11.966;2023-07-20T05:07:52;6.47;;;4.30;;
23388;SDS011;11867;51.198;11.966;2023-07-20T05:09:16;6.65;;;4.15;;
23388;SDS011;11867;51.198;11.966;2023-07-20T05:10:39;7.05;;;4.47;;
23388;SDS011;11867;51.198;11.966;2023-07-20T05:12:01;4.80;;;3.80;;
23388;SDS011;11867;51.198;11.966;2023-07-20T05:13:24;6.03;;;3.70;;
23388;SDS011;11867;51.198;11.966;2023-07-20T05:14:46;5.70;;;4.32;;
23388;SDS011;11867;51.198;11.966;2023-07-20T05:16:09;4.97;;;4.10;;
23388;SDS011;11867;51.198;11.966;2023-07-20T05:17:31;3.65;;;2.88;;
23388;SDS011;11867;51.198;11.966;2023-07-20T05:18:54;6.25;;;3.50;;
23388;SDS011;11867;51.198;11.966;2023-07-20T05:20:20;4.57;;;3.30;;
23388;SDS011;11867;51.198;11.966;2023-07-20T05:21:43;4.45;;;3.17;;
23388;SDS011;11867;51.198;11.966;2023-07-20T05:23:05;5.97;;;3.13;;
23388;SDS011;11867;51.198;11.966;2023-07-20T05:24:28;5.70;;;3.40;;
23388;SDS011;11867;51.198;11.966;2023-07-20T05:25:53;4.40;;;3.42;;
23388;SDS011;11867;51.198;11.966;2023-07-20T05:27:17;3.50;;;3.20;;
23388;SDS011;11867;51.198;11.966;2023-07-20T05:28:39;4.30;;;3.22;;
23388;SDS011;11867;51.198;11.966;2023-07-20T05:30:02;6.80;;;3.67;;
23388;SDS011;11867;51.198;11.966;2023-07-20T05:31:25;4.40;;;3.70;;
23388;SDS011;11867;51.198;11.966;2023-07-20T05:38:15;5.10;;;3.97;;
23388;SDS011;11867;51.198;11.966;2023-07-20T05:39:38;4.57;;;3.78;;
23388;SDS011;11867;51.198;11.966;2023-07-20T05:41:00;4.28;;;3.67;;
23388;SDS011;11867;51.198;11.966;2023-07-20T05:42:25;9.05;;;3.72;;
23388;SDS011;11867;51.198;11.966;2023-07-20T05:43:47;7.50;;;4.18;;
23388;SDS011;11867;51.198;11.966;2023-07-20T05:45:10;4.57;;;4.15;;
23388;SDS011;11867;51.198;11.966;2023-07-20T05:46:32;4.25;;;3.85;;
23388;SDS011;11867;51.198;11.966;2023-07-20T05:48:11;6.10;;;4.10;;
23388;SDS011;11867;51.198;11.966;2023-07-20T05:49:35;8.13;;;4.03;;
23388;SDS011;11867;51.198;11.966;2023-07-20T05:50:58;4.93;;;4.53;;
23388;SDS011;11867;51.198;11.966;2023-07-20T05:52:21;6.13;;;4.50;;
23388;SDS011;11867;51.198;11.966;2023-07-20T05:53:44;5.40;;;4.90;;
23388;SDS011;11867;51.198;11.966;2023-07-20T05:55:07;6.90;;;5.32;;
23388;SDS011;11867;51.198;11.966;2023-07-20T05:56:29;8.32;;;4.80;;
23388;SDS011;11867;51.198;11.966;2023-07-20T05:57:52;5.72;;;5.10;;
23388;SDS011;11867;51.198;11.966;2023-07-20T05:59:17;7.90;;;4.82;;
23388;SDS011;11867;51.198;11.966;2023-07-20T06:00:43;7.07;;;5.22;;
23388;SDS011;11867;51.198;11.966;2023-07-20T06:02:05;7.05;;;4.90;;
23388;SDS011;11867;51.198;11.966;2023-07-20T06:03:29;8.35;;;5.05;;
23388;SDS011;11867;51.198;11.966;2023-07-20T06:04:51;5.63;;;5.13;;
23388;SDS011;11867;51.198;11.966;2023-07-20T06:06:14;5.80;;;4.55;;
23388;SDS011;11867;51.198;11.966;2023-07-20T06:07:36;6.28;;;4.88;;
23388;SDS011;11867;51.198;11.966;2023-07-20T06:09:01;6.80;;;4.95;;
23388;SDS011;11867;51.198;11.966;2023-07-20T06:10:25;6.72;;;5.05;;
23388;SDS011;11867;51.198;11.966;2023-07-20T06:11:49;5.45;;;4.68;;
23388;SDS011;11867;51.198;11.966;2023-07-20T06:13:12;9.88;;;5.85;;
23388;SDS011;11867;51.198;11.966;2023-07-20T06:14:36;6.05;;;4.63;;
23388;SDS011;11867;51.198;11.966;2023-07-20T06:15:58;7.30;;;4.90;;
23388;SDS011;11867;51.198;11.966;2023-07-20T06:17:21;7.22;;;5.25;;
23388;SDS011;11867;51.198;11.966;2023-07-20T06:18:43;5.55;;;4.90;;
23388;SDS011;11867;51.198;11.966;2023-07-20T06:20:07;6.72;;;5.28;;
23388;SDS011;11867;51.198;11.966;2023-07-20T06:21:30;8.82;;;5.80;;
23388;SDS011;11867;51.198;11.966;2023-07-20T06:22:53;9.30;;;5.13;;
23388;SDS011;11867;51.198;11.966;2023-07-20T06:24:16;5.00;;;4.57;;
23388;SDS011;11867;51.198;11.966;2023-07-20T06:25:39;7.78;;;5.05;;
23388;SDS011;11867;51.198;11.966;2023-07-20T06:27:01;6.90;;;5.65;;
23388;SDS011;11867;51.198;11.966;2023-07-20T06:28:24;5.65;;;5.15;;
23388;SDS011;11867;51.198;11.966;2023-07-20T06:29:46;5.45;;;4.82;;
23388;SDS011;11867;51.198;11.966;2023-07-20T06:31:09;7.13;;;4.78;;
23388;SDS011;11867;51.198;11.966;2023-07-20T06:32:31;5.32;;;4.82;;
23388;SDS011;11867;51.198;11.966;2023-07-20T06:33:54;6.13;;;5.53;;
23388;SDS011;11867;51.198;11.966;2023-07-20T06:35:17;7.15;;;5.90;;
23388;SDS011;11867;51.198;11.966;2023-07-20T06:36:39;6.88;;;5.38;;
23388;SDS011;11867;51.198;11.966;2023-07-20T06:38:02;5.65;;;4.80;;
23388;SDS011;11867;51.198;11.966;2023-07-20T06:39:30;6.75;;;4.95;;
23388;SDS011;11867;51.198;11.966;2023-07-20T06:40:56;4.95;;;4.43;;
23388;SDS011;11867;51.198;11.966;2023-07-20T06:42:18;11.32;;;4.05;;
23388;SDS011;11867;51.198;11.966;2023-07-20T06:43:41;9.45;;;4.53;;
23388;SDS011;11867;51.198;11.966;2023-07-20T06:45:06;5.47;;;4.57;;
23388;SDS011;11867;51.198;11.966;2023-07-20T06:46:30;6.97;;;4.40;;
23388;SDS011;11867;51.198;11.966;2023-07-20T06:47:52;8.20;;;4.60;;
23388;SDS011;11867;51.198;11.966;2023-07-20T06:49:23;7.35;;;4.90;;
23388;SDS011;11867;51.198;11.966;2023-07-20T06:50:46;8.52;;;4.43;;
23388;SDS011;11867;51.198;11.966;2023-07-20T06:52:09;6.28;;;4.53;;
23388;SDS011;11867;51.198;11.966;2023-07-20T06:53:32;5.10;;;4.60;;
23388;SDS011;11867;51.198;11.966;2023-07-20T06:54:55;5.25;;;4.05;;
23388;SDS011;11867;51.198;11.966;2023-07-20T06:56:22;4.70;;;4.00;;
23388;SDS011;11867;51.198;11.966;2023-07-20T06:57:47;4.53;;;3.95;;
23388;SDS011;11867;51.198;11.966;2023-07-20T06:59:10;6.00;;;4.15;;
23388;SDS011;11867;51.198;11.966;2023-07-20T07:00:33;4.82;;;4.18;;
23388;SDS011;11867;51.198;11.966;2023-07-20T07:01:55;4.43;;;3.17;;
23388;SDS011;11867;51.198;11.966;2023-07-20T07:03:18;3.55;;;3.25;;
23388;SDS011;11867;51.198;11.966;2023-07-20T07:04:40;4.05;;;3.05;;
23388;SDS011;11867;51.198;11.966;2023-07-20T07:06:05;4.03;;;3.63;;
23388;SDS011;11867;51.198;11.966;2023-07-20T07:07:27;3.83;;;3.30;;
23388;SDS011;11867;51.198;11.966;2023-07-20T07:08:50;3.63;;;2.97;;
23388;SDS011;11867;51.198;11.966;2023-07-20T07:10:13;6.65;;;2.95;;
23388;SDS011;11867;51.198;11.966;2023-07-20T07:11:36;3.17;;;2.78;;
23388;SDS011;11867;51.198;11.966;2023-07-20T07:12:58;5.30;;;2.90;;
23388;SDS011;11867;51.198;11.966;2023-07-20T07:14:21;3.78;;;3.47;;
23388;SDS011;11867;51.198;11.966;2023-07-20T07:15:44;4.68;;;3.50;;
23388;SDS011;11867;51.198;11.966;2023-07-20T07:17:08;4.80;;;3.25;;
23388;SDS011;11867;51.198;11.966;2023-07-20T07:18:32;3.50;;;3.08;;
23388;SDS011;11867;51.198;11.966;2023-07-20T07:19:56;3.47;;;3.17;;
23388;SDS011;11867;51.198;11.966;2023-07-20T07:21:19;5.13;;;3.70;;
23388;SDS011;11867;51.198;11.966;2023-07-20T07:22:43;4.20;;;3.80;;
23388;SDS011;11867;51.198;11.966;2023-07-20T07:24:06;4.45;;;3.83;;
23388;SDS011;11867;51.198;11.966;2023-07-20T07:25:33;4.88;;;4.15;;
23388;SDS011;11867;51.198;11.966;2023-07-20T07:26:55;4.45;;;3.97;;
23388;SDS011;11867;51.198;11.966;2023-07-20T07:28:18;7.03;;;4.97;;
23388;SDS011;11867;51.198;11.966;2023-07-20T07:29:40;4.80;;;4.10;;
23388;SDS011;11867;51.198;11.966;2023-07-20T07:31:05;5.45;;;4.78;;
23388;SDS011;11867;51.198;11.966;2023-07-20T07:32:27;7.30;;;4.90;;
23388;SDS011;11867;51.198;11.966;2023-07-20T07:33:50;4.57;;;4.15;;
23388;SDS011;11867;51.198;11.966;2023-07-20T07:35:12;6.15;;;4.68;;
23388;SDS011;11867;51.198;11.966;2023-07-20T07:36:35;4.93;;;4.40;;
23388;SDS011;11867;51.198;11.966;2023-07-20T07:37:57;8.15;;;4.50;;
23388;SDS011;11867;51.198;11.966;2023-07-20T07:39:39;6.22;;;4.68;;
23388;SDS011;11867;51.198;11.966;2023-07-20T07:41:04;4.20;;;3.72;;
23388;SDS011;11867;51.198;11.966;2023-07-20T07:42:26;4.53;;;4.10;;
23388;SDS011;11867;51.198;11.966;2023-07-20T07:43:51;5.43;;;3.97;;
23388;SDS011;11867;51.198;11.966;2023-07-20T07:45:13;5.50;;;3.72;;
23388;SDS011;11867;51.198;11.966;2023-07-20T07:46:38;6.30;;;4.07;;
23388;SDS011;11867;51.198;11.966;2023-07-20T07:48:00;4.28;;;3.88;;
23388;SDS011;11867;51.198;11.966;2023-07-20T07:49:23;6.55;;;4.28;;
23388;SDS011;11867;51.198;11.966;2023-07-20T07:50:45;4.25;;;2.75;;
23388;SDS011;11867;51.198;11.966;2023-07-20T07:52:08;4.43;;;2.70;;
23388;SDS011;11867;51.198;11.966;2023-07-20T07:53:30;3.22;;;2.53;;
23388;SDS011;11867;51.198;11.966;2023-07-20T07:54:54;4.00;;;2.35;;
23388;SDS011;11867;51.198;11.966;2023-07-20T07:56:18;4.13;;;2.28;;
23388;SDS011;11867;51.198;11.966;2023-07-20T07:57:45;3.25;;;2.30;;
23388;SDS011;11867;51.198;11.966;2023-07-20T07:59:09;3.38;;;2.38;;
23388;SDS011;11867;51.198;11.966;2023-07-20T08:00:30;2.65;;;1.90;;
23388;SDS011;11867;51.198;11.966;2023-07-20T08:01:54;2.50;;;1.83;;
23388;SDS011;11867;51.198;11.966;2023-07-20T08:03:17;2.47;;;2.05;;
23388;SDS011;11867;51.198;11.966;2023-07-20T08:04:40;2.03;;;1.90;;
23388;SDS011;11867;51.198;11.966;2023-07-20T08:06:03;1.80;;;1.70;;
23388;SDS011;11867;51.198;11.966;2023-07-20T08:07:26;3.58;;;1.90;;
23388;SDS011;11867;51.198;11.966;2023-07-20T08:08:49;2.10;;;1.90;;
23388;SDS011;11867;51.198;11.966;2023-07-20T08:10:12;4.00;;;2.20;;
23388;SDS011;11867;51.198;11.966;2023-07-20T08:11:35;2.67;;;1.85;;
23388;SDS011;11867;51.198;11.966;2023-07-20T08:12:59;2.33;;;1.77;;
23388;SDS011;11867;51.198;11.966;2023-07-20T08:14:22;2.95;;;2.03;;
23388;SDS011;11867;51.198;11.966;2023-07-20T08:15:45;6.15;;;2.33;;
23388;SDS011;11867;51.198;11.966;2023-07-20T08:17:12;2.10;;;1.90;;
23388;SDS011;11867;51.198;11.966;2023-07-20T08:18:34;2.50;;;1.98;;
23388;SDS011;11867;51.198;11.966;2023-07-20T08:19:57;1.67;;;1.58;;
23388;SDS011;11867;51.198;11.966;2023-07-20T08:21:19;3.10;;;1.70;;